Tropic, Utah
Current Conditions -  °F | °C
As of 11:53 PM on Tuesday 21 Oct 2014 (Local Time) from KBCE Reporting Station
Clear Clear  
Wind Chill: 29°   Ceiling: Unl
Heat Index: 33°   Visibility: 10mi
Dew Point: 30°   Wind: 5mph
Humidity: 89%   Direction: 270°W
Pressure: 30.16"   Gusts: NA
Location:  37.63°N, 112.08°W
Report Text: KBCE 220553Z AUTO 27004KT 10SM CLR 01/M01 A3016 RMK AO2 SLP140 T00061011 10139 20000 51010 TSNO
Loading
Personal Weather Stations






























Interactive Weather Map
Tropical Storm Tracking
New forecast layout! Learn more

10-Day Weather Forecast

Advertisements
Track Severe Weather on mobile